createdAt,value
2019-01-15T00:01:06.944Z,77.15
2019-01-15T00:03:35.320Z,76.52
2019-01-15T00:06:03.461Z,75.77
2019-01-15T00:08:31.423Z,75.75
2019-01-15T00:10:59.465Z,74.76
2019-01-15T00:13:27.454Z,75.29
2019-01-15T00:15:55.447Z,75.22
2019-01-15T00:18:23.561Z,75.25
2019-01-15T00:20:52.146Z,74.93
2019-01-15T00:23:20.858Z,74.66
2019-01-15T00:25:48.833Z,74.18
2019-01-15T00:28:16.864Z,73.89
2019-01-15T00:30:44.978Z,73.09
2019-01-15T00:33:13.330Z,72.43
2019-01-15T00:35:41.326Z,71.43
2019-01-15T00:38:10.515Z,71.49
2019-01-15T00:40:38.536Z,72.07
2019-01-15T00:43:07.023Z,70.59
2019-01-15T00:45:35.060Z,70.17
2019-01-15T00:48:03.266Z,70.46
2019-01-15T00:50:34.188Z,69.61
2019-01-15T00:53:02.364Z,69.30
2019-01-15T00:55:30.349Z,69.85
2019-01-15T00:57:59.322Z,69.79
2019-01-15T01:00:28.621Z,70.28
2019-01-15T01:02:56.705Z,69.63
2019-01-15T01:05:24.760Z,69.19
2019-01-15T01:07:53.138Z,70.09
2019-01-15T01:10:21.106Z,70.39
2019-01-15T01:12:49.175Z,69.85
2019-01-15T01:15:17.664Z,70.28
2019-01-15T01:17:45.780Z,70.88
2019-01-15T01:20:18.461Z,70.75
2019-01-15T01:22:46.732Z,70.76
2019-01-15T01:25:14.863Z,70.51
2019-01-15T01:27:42.848Z,71.16
2019-01-15T01:30:18.914Z,70.93
2019-01-15T01:32:47.444Z,71.24
2019-01-15T01:35:15.565Z,71.34
2019-01-15T01:37:43.817Z,71.15
2019-01-15T01:40:15.019Z,71.83
2019-01-15T01:42:42.922Z,71.47
2019-01-15T01:45:11.634Z,71.33
2019-01-15T01:47:40.325Z,71.24
2019-01-15T01:50:10.370Z,71.74
2019-01-15T01:52:38.719Z,71.43
2019-01-15T01:55:08.727Z,71.50
2019-01-15T01:57:36.693Z,70.91
2019-01-15T02:00:08.900Z,71.02
2019-01-15T02:02:37.188Z,71.51
2019-01-15T02:05:05.924Z,71.99
2019-01-15T02:07:34.291Z,71.74
2019-01-15T02:10:03.393Z,71.96
2019-01-15T02:12:36.812Z,71.90
2019-01-15T02:15:03.629Z,71.61
2019-01-15T02:17:33.053Z,72.27
2019-01-15T02:20:01.867Z,72.06
2019-01-15T02:22:30.076Z,72.35
2019-01-15T02:24:58.187Z,72.44
2019-01-15T02:27:26.762Z,73.03
2019-01-15T02:29:54.916Z,74.58
2019-01-15T02:32:22.964Z,73.02
2019-01-15T02:34:50.935Z,72.76
2019-01-15T02:37:18.891Z,72.88
2019-01-15T02:39:46.833Z,73.15
2019-01-15T02:42:14.776Z,73.36
2019-01-15T02:44:42.740Z,73.40
2019-01-15T02:47:10.812Z,73.17
2019-01-15T02:49:38.772Z,73.48
2019-01-15T02:52:07.187Z,72.93
2019-01-15T02:54:35.682Z,74.38
2019-01-15T02:57:04.558Z,73.65
2019-01-15T02:59:32.707Z,74.00
2019-01-15T03:02:00.940Z,74.03
2019-01-15T03:04:28.945Z,73.10
2019-01-15T03:06:57.190Z,73.29
2019-01-15T03:09:25.204Z,73.62
2019-01-15T03:11:53.206Z,73.52
2019-01-15T03:14:22.268Z,73.42
2019-01-15T03:16:51.285Z,73.68
2019-01-15T03:19:19.929Z,73.46
2019-01-15T03:21:48.590Z,73.34
2019-01-15T03:24:16.515Z,73.16
2019-01-15T03:26:44.786Z,72.96
2019-01-15T03:29:12.743Z,73.19
2019-01-15T03:31:41.076Z,72.59
2019-01-15T03:34:09.341Z,72.62
2019-01-15T03:36:38.543Z,73.30
2019-01-15T03:39:08.884Z,73.13
2019-01-15T03:41:36.868Z,72.99
2019-01-15T03:44:05.124Z,72.54
2019-01-15T03:46:33.407Z,73.34
2019-01-15T03:49:01.386Z,72.95
2019-01-15T03:51:30.543Z,72.95
2019-01-15T03:53:58.822Z,72.25
2019-01-15T03:56:27.125Z,72.07
2019-01-15T03:58:55.993Z,71.99
2019-01-15T04:01:24.318Z,71.56
2019-01-15T04:03:52.320Z,72.08
2019-01-15T04:06:20.554Z,72.75
2019-01-15T04:08:48.560Z,72.20
2019-01-15T04:11:16.839Z,71.12
2019-01-15T04:13:44.782Z,71.75
2019-01-15T04:16:12.779Z,71.08
2019-01-15T04:18:42.918Z,71.34
2019-01-15T04:21:11.743Z,72.29
2019-01-15T04:23:39.707Z,71.17
2019-01-15T04:26:07.703Z,71.85
2019-01-15T04:28:35.729Z,71.86
2019-01-15T04:31:03.730Z,72.27
2019-01-15T04:33:31.716Z,72.16
2019-01-15T04:35:59.754Z,72.72
2019-01-15T04:38:28.831Z,72.86
2019-01-15T04:40:58.050Z,73.26
2019-01-15T04:43:26.919Z,73.78
2019-01-15T04:45:57.840Z,73.87
2019-01-15T04:48:27.641Z,73.97
2019-01-15T04:50:56.772Z,73.88
2019-01-15T04:53:25.212Z,74.36
2019-01-15T04:55:53.188Z,73.98
2019-01-15T04:58:21.283Z,74.25
2019-01-15T05:00:49.435Z,74.16
2019-01-15T05:03:17.671Z,74.17
2019-01-15T05:05:45.644Z,74.54
2019-01-15T05:08:13.618Z,74.56
2019-01-15T05:10:42.065Z,74.84
2019-01-15T05:13:10.102Z,74.46
2019-01-15T05:15:38.048Z,74.78
2019-01-15T05:18:06.013Z,74.70
2019-01-15T05:20:35.796Z,75.15
2019-01-15T05:23:04.049Z,74.78
2019-01-15T05:25:32.335Z,74.31
2019-01-15T05:28:00.934Z,74.89
2019-01-15T05:30:29.583Z,74.14
2019-01-15T05:32:57.868Z,74.63
2019-01-15T05:35:25.812Z,74.94
2019-01-15T05:37:54.053Z,74.65
2019-01-15T05:40:22.030Z,74.35
2019-01-15T05:42:50.325Z,74.88
2019-01-15T05:45:26.141Z,74.68
2019-01-15T05:47:56.299Z,75.01
2019-01-15T05:50:37.352Z,75.13
2019-01-15T05:53:05.622Z,74.78
2019-01-15T05:55:33.966Z,75.54
2019-01-15T05:58:02.018Z,75.35
2019-01-15T06:00:30.322Z,75.60
2019-01-15T06:02:58.349Z,77.20
2019-01-15T06:05:26.771Z,75.85
2019-01-15T06:07:55.069Z,75.54
2019-01-15T06:10:23.455Z,75.75
2019-01-15T06:12:51.527Z,75.87
2019-01-15T06:15:19.518Z,75.87
2019-01-15T06:17:47.526Z,75.99
2019-01-15T06:20:16.237Z,76.15
2019-01-15T06:22:44.603Z,76.28
2019-01-15T06:25:12.565Z,76.13
2019-01-15T06:27:40.869Z,75.90
2019-01-15T06:30:11.779Z,76.10
2019-01-15T06:32:39.756Z,76.23
2019-01-15T06:35:07.749Z,76.17
2019-01-15T06:37:35.768Z,75.15
2019-01-15T06:40:05.271Z,75.56
2019-01-15T06:42:33.207Z,75.71
2019-01-15T06:45:01.202Z,75.46
2019-01-15T06:47:29.130Z,75.86
2019-01-15T06:49:57.376Z,75.56
2019-01-15T06:52:25.871Z,75.35
2019-01-15T06:54:54.547Z,75.39
2019-01-15T06:57:23.245Z,75.68
2019-01-15T06:59:51.182Z,75.47
2019-01-15T07:02:19.131Z,75.77
2019-01-15T07:04:47.111Z,75.98
2019-01-15T07:07:15.406Z,75.96
2019-01-15T07:09:43.372Z,75.83
2019-01-15T07:12:11.401Z,75.54
2019-01-15T07:14:39.734Z,76.03
2019-01-15T07:17:07.677Z,76.17
2019-01-15T07:19:35.671Z,75.50
2019-01-15T07:22:04.154Z,75.62
2019-01-15T07:24:32.105Z,75.76
2019-01-15T07:27:00.058Z,75.09
2019-01-15T07:29:28.925Z,75.09
2019-01-15T07:31:57.268Z,74.68
2019-01-15T07:34:25.521Z,76.94
2019-01-15T07:36:54.029Z,76.61
2019-01-15T07:39:22.041Z,75.06
2019-01-15T07:41:50.167Z,75.70
2019-01-15T07:44:18.947Z,75.03
2019-01-15T07:46:46.947Z,75.78
2019-01-15T07:49:14.893Z,74.58
2019-01-15T07:51:42.904Z,75.42
2019-01-15T07:54:11.032Z,75.39
2019-01-15T07:56:39.112Z,75.36
2019-01-15T07:59:06.966Z,75.33
2019-01-15T08:01:35.626Z,75.51
2019-01-15T08:04:03.569Z,75.18
2019-01-15T08:06:31.529Z,75.57
2019-01-15T08:08:59.475Z,75.49
2019-01-15T08:11:28.511Z,75.57
2019-01-15T08:13:56.693Z,75.50
2019-01-15T08:16:24.955Z,75.24
2019-01-15T08:18:52.952Z,75.37
2019-01-15T08:21:21.534Z,75.32
2019-01-15T08:23:49.899Z,75.66
2019-01-15T08:26:17.865Z,75.08
2019-01-15T08:28:45.917Z,74.58
2019-01-15T08:31:14.537Z,74.68
2019-01-15T08:33:42.567Z,74.08
2019-01-15T08:36:10.519Z,74.59
2019-01-15T08:38:38.819Z,74.57
2019-01-15T08:41:06.730Z,74.59
2019-01-15T08:43:35.225Z,74.89
2019-01-15T08:46:03.523Z,74.54
2019-01-15T08:48:32.392Z,74.69
2019-01-15T08:52:44.208Z,74.91
2019-01-15T08:55:13.780Z,74.65
2019-01-15T08:57:41.970Z,74.71
2019-01-15T09:00:11.421Z,74.38
2019-01-15T09:02:40.886Z,74.05
2019-01-15T09:05:08.993Z,73.56
2019-01-15T09:07:37.344Z,73.12
2019-01-15T09:10:08.043Z,72.55
2019-01-15T09:12:36.368Z,72.19
2019-01-15T09:15:06.857Z,71.59
2019-01-15T09:17:34.817Z,70.35
2019-01-15T09:20:04.935Z,69.95
2019-01-15T09:22:33.485Z,69.73
2019-01-15T09:25:01.758Z,68.80
2019-01-15T09:27:30.075Z,69.95
2019-01-15T09:29:58.271Z,69.30
2019-01-15T09:32:26.329Z,68.56
2019-01-15T09:34:54.666Z,69.04
2019-01-15T09:37:22.798Z,67.21
2019-01-15T09:39:50.882Z,66.72
2019-01-15T09:42:19.164Z,66.46
2019-01-15T09:44:47.679Z,67.29
2019-01-15T09:47:17.216Z,67.41
2019-01-15T09:49:45.616Z,67.14
2019-01-15T09:52:20.479Z,66.87
2019-01-15T09:54:43.978Z,66.08
2019-01-15T09:57:11.946Z,66.49
2019-01-15T09:59:40.223Z,66.06
2019-01-15T10:02:08.160Z,65.74
2019-01-15T10:04:36.643Z,65.40
2019-01-15T10:07:04.780Z,64.88
2019-01-15T10:09:32.818Z,63.88
2019-01-15T10:12:00.920Z,63.79
2019-01-15T10:14:28.944Z,63.74
2019-01-15T10:16:57.157Z,64.18
2019-01-15T10:19:25.534Z,64.03
2019-01-15T10:21:53.852Z,64.29
2019-01-15T10:24:22.025Z,65.86
2019-01-15T10:26:49.994Z,65.74
2019-01-15T10:29:19.427Z,66.45
2019-01-15T10:33:03.999Z,66.38
2019-01-15T10:36:02.725Z,65.84
2019-01-15T10:38:32.015Z,65.33
2019-01-15T10:41:00.989Z,65.30
2019-01-15T10:43:33.447Z,64.90
2019-01-15T10:46:01.939Z,65.25
2019-01-15T10:48:30.136Z,64.86
2019-01-15T10:50:58.142Z,64.48
2019-01-15T10:53:26.731Z,65.33
2019-01-15T10:55:54.833Z,63.66
2019-01-15T10:58:22.949Z,63.13
2019-01-15T11:00:50.923Z,63.06
2019-01-15T11:03:18.914Z,63.46
2019-01-15T11:05:46.922Z,63.13
2019-01-15T11:08:15.121Z,63.23
2019-01-15T11:10:43.400Z,63.96
2019-01-15T11:13:11.673Z,62.54
2019-01-15T11:15:43.370Z,61.88
2019-01-15T11:18:09.620Z,62.04
2019-01-15T11:20:38.357Z,61.60
2019-01-15T11:23:06.435Z,61.73
2019-01-15T11:25:34.435Z,62.52
2019-01-15T11:28:02.412Z,62.54
2019-01-15T11:30:30.405Z,62.17
2019-01-15T11:32:58.696Z,61.90
2019-01-15T11:35:27.025Z,60.27
2019-01-15T11:37:55.679Z,61.38
2019-01-15T11:40:25.243Z,61.07
2019-01-15T11:42:53.551Z,59.85
2019-01-15T11:45:21.525Z,59.61
2019-01-15T11:47:49.718Z,59.15
2019-01-15T11:50:17.957Z,57.29
2019-01-15T11:52:45.891Z,58.76
2019-01-15T11:55:13.842Z,58.84
2019-01-15T11:57:43.503Z,58.80
2019-01-15T12:00:23.339Z,59.20
2019-01-15T12:03:00.014Z,57.97
2019-01-15T12:05:47.677Z,58.93
2019-01-15T12:08:40.425Z,58.86
2019-01-15T12:11:26.928Z,59.49
2019-01-15T12:14:29.922Z,59.89
2019-01-15T12:17:32.982Z,60.39
2019-01-15T12:20:23.387Z,61.48
2019-01-15T12:23:09.674Z,61.66
2019-01-15T12:26:07.514Z,61.45
2019-01-15T12:28:47.666Z,61.12
2019-01-15T12:31:38.538Z,62.22
2019-01-15T12:34:35.015Z,62.15
2019-01-15T12:37:28.308Z,62.57
2019-01-15T12:40:09.306Z,62.56
2019-01-15T12:43:03.203Z,62.66
2019-01-15T12:46:00.247Z,62.92
2019-01-15T12:48:50.681Z,62.74
2019-01-15T12:51:37.157Z,63.44
2019-01-15T12:54:31.121Z,63.17
2019-01-15T12:57:21.595Z,63.76
2019-01-15T13:00:27.890Z,64.21
2019-01-15T13:03:21.250Z,64.46
2019-01-15T13:06:11.627Z,63.82
2019-01-15T13:09:00.145Z,63.39
2019-01-15T13:12:03.175Z,63.55
2019-01-15T13:14:56.213Z,64.48
2019-01-15T13:17:52.658Z,64.81
2019-01-15T13:20:42.951Z,64.32
2019-01-15T13:23:45.770Z,64.22
2019-01-15T13:26:35.939Z,64.53
2019-01-15T13:29:32.573Z,64.44
2019-01-15T13:32:20.160Z,64.25
2019-01-15T13:35:06.900Z,64.12
2019-01-15T13:37:57.541Z,64.97
2019-01-15T13:40:33.203Z,65.17
2019-01-15T13:43:13.939Z,64.53
2019-01-15T13:46:06.259Z,65.55
2019-01-15T13:48:52.896Z,64.98
2019-01-15T13:51:59.060Z,65.62
2019-01-15T13:55:01.653Z,65.42
2019-01-15T13:57:41.830Z,66.47
2019-01-15T14:00:26.422Z,65.99
2019-01-15T14:03:13.554Z,66.37
2019-01-15T14:06:01.380Z,65.82
2019-01-15T14:08:42.039Z,65.94
2019-01-15T14:11:28.266Z,65.88
2019-01-15T14:14:31.132Z,65.87
2019-01-15T14:17:08.185Z,66.15
2019-01-15T14:20:07.997Z,66.42
2019-01-15T14:22:50.180Z,66.41
2019-01-15T14:25:35.070Z,65.76
2019-01-15T14:28:25.899Z,65.33
2019-01-15T14:31:17.874Z,65.74
2019-01-15T14:34:17.818Z,65.89
2019-01-15T14:36:58.652Z,67.00
2019-01-15T14:39:49.940Z,66.19
2019-01-15T14:42:38.019Z,65.70
2019-01-15T14:45:31.329Z,66.02
2019-01-15T14:48:17.877Z,65.75
2019-01-15T14:51:06.057Z,65.09
2019-01-15T14:53:46.467Z,66.26
2019-01-15T14:56:37.560Z,65.95
2019-01-15T14:59:38.685Z,66.41
2019-01-15T15:02:28.689Z,66.32
2019-01-15T15:05:20.049Z,65.98
2019-01-15T15:08:09.241Z,66.27
2019-01-15T15:10:44.038Z,66.41
2019-01-15T15:13:22.733Z,66.25
2019-01-15T15:16:08.795Z,66.29
2019-01-15T15:18:56.682Z,66.47
2019-01-15T15:21:46.883Z,66.72
2019-01-15T15:24:34.747Z,66.57
2019-01-15T15:27:15.734Z,66.86
2019-01-15T15:30:01.997Z,66.53
2019-01-15T15:32:48.765Z,66.75
2019-01-15T15:35:50.304Z,66.09
2019-01-15T15:38:38.772Z,66.67
2019-01-15T15:41:28.953Z,66.37
2019-01-15T15:44:05.607Z,66.61
2019-01-15T15:47:11.885Z,66.51
2019-01-15T15:49:58.613Z,66.95
2019-01-15T15:53:01.673Z,67.36
2019-01-15T15:55:40.620Z,67.23
2019-01-15T15:58:34.078Z,67.13
2019-01-15T16:01:21.716Z,66.48
2019-01-15T16:04:24.635Z,66.65
2019-01-15T16:07:21.922Z,66.85
2019-01-15T16:10:08.775Z,67.01
2019-01-15T16:13:01.993Z,67.08
2019-01-15T16:15:48.624Z,66.89
2019-01-15T16:18:54.599Z,67.51
2019-01-15T16:21:33.020Z,67.78
2019-01-15T16:24:15.520Z,68.24
2019-01-15T16:27:02.066Z,68.11
2019-01-15T16:29:49.956Z,68.29
2019-01-15T16:32:32.355Z,68.25
2019-01-15T16:35:29.807Z,68.49
2019-01-15T16:38:09.585Z,68.05
2019-01-15T16:41:00.255Z,67.38
2019-01-15T16:43:47.125Z,67.77
2019-01-15T16:46:33.092Z,68.13
2019-01-15T16:49:20.161Z,67.74
2019-01-15T16:52:26.376Z,67.77
2019-01-15T16:55:06.355Z,67.22
2019-01-15T16:57:52.657Z,68.07
2019-01-15T17:00:38.931Z,67.62
2019-01-15T17:03:32.454Z,67.60
2019-01-15T17:06:15.604Z,67.58
2019-01-15T17:09:02.104Z,67.51
2019-01-15T17:11:49.419Z,66.91
2019-01-15T17:14:37.050Z,67.29
2019-01-15T17:17:18.075Z,67.67
2019-01-15T17:20:01.670Z,69.07
2019-01-15T17:22:49.859Z,67.71
2019-01-15T17:25:38.439Z,67.86
2019-01-15T17:28:26.493Z,68.00
2019-01-15T17:31:10.573Z,67.40
2019-01-15T17:34:01.327Z,68.31
2019-01-15T17:36:39.905Z,68.47
2019-01-15T17:39:32.278Z,68.50
2019-01-15T17:42:20.327Z,68.93
2019-01-15T17:45:13.623Z,69.45
2019-01-15T17:48:13.644Z,70.05
2019-01-15T17:51:13.368Z,69.99
2019-01-15T17:53:59.554Z,69.73
2019-01-15T17:56:45.909Z,70.30
2019-01-15T17:59:26.631Z,70.31
2019-01-15T18:02:14.206Z,70.41
2019-01-15T18:05:14.023Z,70.36
2019-01-15T18:08:04.510Z,70.51
2019-01-15T18:10:57.209Z,70.25
2019-01-15T18:13:50.760Z,70.39
2019-01-15T18:16:48.374Z,69.88
2019-01-15T18:19:20.561Z,69.88
2019-01-15T18:22:23.855Z,69.96
2019-01-15T18:25:10.624Z,70.20
2019-01-15T18:28:18.907Z,69.93
2019-01-15T18:31:07.353Z,70.04
2019-01-15T18:33:58.043Z,70.19
2019-01-15T18:36:54.978Z,70.10
2019-01-15T18:39:43.691Z,69.67
2019-01-15T18:42:29.906Z,69.87
2019-01-15T18:45:07.695Z,69.77
2019-01-15T18:47:52.918Z,69.61
2019-01-15T18:50:39.668Z,69.57
2019-01-15T18:53:25.862Z,69.87
2019-01-15T18:56:28.507Z,69.53
2019-01-15T18:59:15.118Z,69.49
2019-01-15T19:02:10.530Z,69.67
2019-01-15T19:04:56.945Z,69.74
2019-01-15T19:07:50.332Z,69.87
2019-01-15T19:10:42.074Z,69.88
2019-01-15T19:13:35.795Z,70.04
2019-01-15T19:16:26.402Z,69.51
2019-01-15T19:19:12.585Z,69.37
2019-01-15T19:21:59.918Z,69.17
2019-01-15T19:24:48.071Z,69.22
2019-01-15T19:27:36.472Z,69.24
2019-01-15T19:30:27.181Z,69.58
2019-01-15T19:33:33.677Z,69.67
2019-01-15T19:36:29.054Z,70.41
2019-01-15T19:39:29.801Z,70.04
2019-01-15T19:42:16.475Z,70.31
2019-01-15T19:45:06.586Z,70.48
2019-01-15T19:47:59.604Z,71.08
2019-01-15T19:50:45.961Z,70.67
2019-01-15T19:53:32.561Z,70.62
2019-01-15T19:56:26.434Z,70.91
2019-01-15T19:59:04.837Z,70.98
2019-01-15T20:02:01.291Z,71.16
2019-01-15T20:04:54.668Z,71.62
2019-01-15T20:07:54.559Z,71.34
2019-01-15T20:10:50.700Z,71.48
2019-01-15T20:13:35.597Z,70.89
2019-01-15T20:16:23.525Z,70.67
2019-01-15T20:19:14.693Z,71.02
2019-01-15T20:22:00.179Z,70.56
2019-01-15T20:24:51.008Z,70.44
2019-01-15T20:27:38.478Z,70.23
2019-01-15T20:30:37.673Z,70.33
2019-01-15T20:33:16.863Z,70.28
2019-01-15T20:36:10.495Z,70.34
2019-01-15T20:39:06.904Z,69.85
2019-01-15T20:42:12.920Z,69.64
2019-01-15T20:44:59.698Z,69.84
2019-01-15T20:47:47.243Z,69.78
2019-01-15T20:50:37.561Z,70.04
2019-01-15T20:53:23.349Z,69.20
2019-01-15T20:56:17.547Z,69.01
2019-01-15T20:59:11.371Z,69.43
2019-01-15T21:02:08.273Z,68.46
2019-01-15T21:05:08.571Z,68.58
2019-01-15T21:07:58.827Z,68.52
2019-01-15T21:10:46.752Z,68.52
2019-01-15T21:13:26.746Z,68.69
2019-01-15T21:16:14.012Z,68.95
2019-01-15T21:19:07.798Z,68.63
2019-01-15T21:21:58.417Z,68.88
2019-01-15T21:24:57.155Z,68.85
2019-01-15T21:27:47.821Z,68.60
2019-01-15T21:30:26.261Z,68.87
2019-01-15T21:33:19.919Z,69.32
2019-01-15T21:36:07.503Z,68.73
2019-01-15T21:38:49.000Z,68.55
2019-01-15T21:41:35.417Z,68.60
2019-01-15T21:44:41.593Z,68.63
2019-01-15T21:47:22.892Z,68.73
2019-01-15T21:50:10.627Z,68.71
2019-01-15T21:52:58.719Z,68.43
2019-01-15T21:55:38.710Z,68.75
2019-01-15T21:58:29.333Z,68.81
2019-01-15T22:01:19.893Z,68.77
2019-01-15T22:04:22.695Z,68.25
2019-01-15T22:07:10.291Z,68.76
2019-01-15T22:10:13.180Z,68.29
2019-01-15T22:12:59.198Z,67.83
2019-01-15T22:15:46.827Z,68.01
2019-01-15T22:18:35.564Z,67.93
2019-01-15T22:21:23.203Z,67.89
2019-01-15T22:24:17.124Z,67.20
2019-01-15T22:27:01.227Z,67.34
2019-01-15T22:29:51.889Z,67.50
2019-01-15T22:32:28.483Z,66.36
2019-01-15T22:35:34.399Z,66.02
2019-01-15T22:38:21.279Z,65.99
2019-01-15T22:41:03.476Z,65.98
2019-01-15T22:43:38.206Z,65.82
2019-01-15T22:46:24.575Z,65.59
2019-01-15T22:49:28.082Z,66.00
2019-01-15T22:52:18.174Z,65.68
2019-01-15T22:55:17.983Z,65.33
2019-01-15T22:58:04.369Z,65.72
2019-01-15T23:00:57.868Z,65.37
2019-01-15T23:03:46.935Z,65.18
2019-01-15T23:06:43.663Z,65.17
2019-01-15T23:09:38.858Z,65.37
2019-01-15T23:12:23.038Z,65.58
2019-01-15T23:15:07.799Z,66.12
2019-01-15T23:17:54.666Z,66.16
2019-01-15T23:20:40.912Z,66.37
2019-01-15T23:23:26.020Z,66.81
2019-01-15T23:26:12.601Z,66.90
2019-01-15T23:29:00.387Z,66.54
2019-01-15T23:31:47.210Z,66.97
2019-01-15T23:34:23.068Z,67.05
2019-01-15T23:37:10.651Z,67.02
2019-01-15T23:40:01.004Z,67.24
2019-01-15T23:42:54.515Z,67.37
2019-01-15T23:45:41.794Z,67.41
2019-01-15T23:48:28.000Z,67.43
2019-01-15T23:51:09.213Z,67.03
2019-01-15T23:53:53.625Z,66.98
2019-01-15T23:56:51.851Z,67.38
2019-01-15T23:59:38.737Z,67.66
